createdAt,value
2018-08-24T00:01:32.726Z,98217.92
2018-08-24T00:04:09.139Z,98222.63
2018-08-24T00:06:41.793Z,98226.12
2018-08-24T00:09:14.969Z,98232.65
2018-08-24T00:11:47.338Z,98239.85
2018-08-24T00:14:19.055Z,98241.69
2018-08-24T00:16:50.982Z,98236.54
2018-08-24T00:19:23.068Z,98244.87
2018-08-24T00:21:54.868Z,98243.53
2018-08-24T00:24:26.578Z,98243.53
2018-08-24T00:26:58.402Z,98238.70
2018-08-24T00:29:29.941Z,98237.98
2018-08-24T00:32:01.715Z,98241.48
2018-08-24T00:34:33.671Z,98244.14
2018-08-24T00:37:05.245Z,98246.30
2018-08-24T00:39:37.483Z,98247.86
2018-08-24T00:42:09.237Z,98248.36
2018-08-24T00:44:41.566Z,98250.38
2018-08-24T00:47:13.431Z,98256.73
2018-08-24T00:49:45.444Z,98264.91
2018-08-24T00:52:17.082Z,98269.75
2018-08-24T00:54:48.978Z,98270.94
2018-08-24T00:57:20.645Z,98278.11
2018-08-24T00:59:52.085Z,98278.94
2018-08-24T01:02:24.336Z,98286.77
2018-08-24T01:04:56.288Z,98280.96
2018-08-24T01:07:28.010Z,98284.78
2018-08-24T01:10:04.365Z,98280.09
2018-08-24T01:12:36.446Z,98282.76
2018-08-24T01:15:08.706Z,98283.45
2018-08-24T01:17:45.167Z,98286.30
2018-08-24T01:20:18.616Z,98290.11
2018-08-24T01:22:51.698Z,98288.97
2018-08-24T01:25:23.643Z,98289.79
2018-08-24T01:27:55.932Z,98295.13
2018-08-24T01:30:28.823Z,98287.99
2018-08-24T01:33:01.474Z,98300.17
2018-08-24T01:35:33.203Z,98298.02
2018-08-24T01:39:07.538Z,98301.83
2018-08-24T01:41:39.597Z,98300.39
2018-08-24T01:44:11.571Z,98306.55
2018-08-24T01:46:44.051Z,98309.91
2018-08-24T01:49:16.207Z,98308.75
2018-08-24T01:51:48.158Z,98313.58
2018-08-24T01:54:19.901Z,98313.91
2018-08-24T01:56:52.163Z,98308.57
2018-08-24T01:59:24.268Z,98311.56
2018-08-24T02:01:56.017Z,98312.57
2018-08-24T02:04:28.239Z,98322.41
2018-08-24T02:06:59.962Z,98324.42
2018-08-24T02:09:31.516Z,98323.92
2018-08-24T02:12:04.032Z,98325.94
2018-08-24T02:14:41.430Z,98334.16
2018-08-24T02:17:18.063Z,98336.61
2018-08-24T02:19:54.641Z,98345.65
2018-08-24T02:22:28.187Z,98363.28
2018-08-24T02:24:59.999Z,98359.67
2018-08-24T02:27:32.671Z,98368.50
2018-08-24T02:30:04.855Z,98370.84
2018-08-24T02:32:37.269Z,98374.37
2018-08-24T02:35:09.673Z,98384.35
2018-08-24T02:37:41.620Z,98392.35
2018-08-24T02:40:13.345Z,98394.02
2018-08-24T02:42:46.069Z,98396.67
2018-08-24T02:45:18.383Z,98393.18
2018-08-24T02:47:50.581Z,98398.34
2018-08-24T02:50:22.617Z,98403.67
2018-08-24T02:52:54.654Z,98403.84
2018-08-24T02:55:26.894Z,98403.84
2018-08-24T02:57:59.025Z,98409.69
2018-08-24T03:00:31.322Z,98416.35
2018-08-24T03:03:05.704Z,98420.91
2018-08-24T03:05:38.222Z,98416.41
2018-08-24T03:08:10.344Z,98418.75
2018-08-24T03:10:42.772Z,98427.77
2018-08-24T03:13:14.631Z,98426.48
2018-08-24T03:15:46.781Z,98427.44
2018-08-24T03:18:18.999Z,98428.44
2018-08-24T03:20:51.097Z,98422.61
2018-08-24T03:23:23.048Z,98425.92
2018-08-24T03:25:55.558Z,98428.77
2018-08-24T03:28:28.301Z,98431.25
2018-08-24T03:31:02.003Z,98424.09
2018-08-24T03:33:34.104Z,98424.77
2018-08-24T03:36:06.682Z,98426.98
2018-08-24T03:38:39.612Z,98437.17
2018-08-24T03:41:11.637Z,98436.84
2018-08-24T03:43:44.530Z,98436.67
2018-08-24T03:46:16.673Z,98439.52
2018-08-24T03:48:49.296Z,98440.84
2018-08-24T03:51:21.427Z,98438.69
2018-08-24T03:53:53.861Z,98446.51
2018-08-24T03:56:25.907Z,98443.56
2018-08-24T03:58:58.710Z,98451.89
2018-08-24T04:01:31.251Z,98451.56
2018-08-24T04:04:04.054Z,98457.55
2018-08-24T04:06:36.056Z,98459.06
2018-08-24T04:09:08.540Z,98457.73
2018-08-24T04:11:40.093Z,98457.73
2018-08-24T04:14:12.814Z,98468.52
2018-08-24T04:16:49.309Z,98468.52
2018-08-24T04:19:29.657Z,98470.67
2018-08-24T04:22:02.420Z,98474.73
2018-08-24T04:24:34.340Z,98475.23
2018-08-24T04:27:06.314Z,98473.90
2018-08-24T04:29:38.031Z,98474.08
2018-08-24T04:32:10.475Z,98474.08
2018-08-24T04:34:43.330Z,98479.25
2018-08-24T04:37:15.940Z,98478.30
2018-08-24T04:39:48.360Z,98477.63
2018-08-24T04:42:21.003Z,98479.66
2018-08-24T04:44:52.891Z,98477.14
2018-08-24T04:47:25.109Z,98475.63
2018-08-24T04:49:57.829Z,98481.30
2018-08-24T04:52:29.961Z,98483.78
2018-08-24T04:55:02.320Z,98484.29
2018-08-24T04:57:34.964Z,98480.29
2018-08-24T05:00:07.974Z,98482.95
2018-08-24T05:02:40.448Z,98481.80
2018-08-24T05:05:13.628Z,98479.96
2018-08-24T05:07:47.590Z,98477.30
2018-08-24T05:10:20.024Z,98477.63
2018-08-24T05:12:51.986Z,98470.63
2018-08-24T05:15:24.785Z,98476.64
2018-08-24T05:17:58.039Z,98477.81
2018-08-24T05:20:30.341Z,98468.98
2018-08-24T05:23:02.562Z,98467.66
2018-08-24T05:25:35.138Z,98459.66
2018-08-24T05:28:08.289Z,98457.84
2018-08-24T05:30:40.512Z,98456.19
2018-08-24T05:33:13.234Z,98455.68
2018-08-24T05:35:45.625Z,98454.20
2018-08-24T05:38:19.261Z,98440.38
2018-08-24T05:40:51.580Z,98442.21
2018-08-24T05:43:23.822Z,98446.68
2018-08-24T05:45:56.021Z,98452.38
2018-08-24T05:48:28.656Z,98437.52
2018-08-24T05:51:00.916Z,98435.69
2018-08-24T05:53:33.165Z,98434.86
2018-08-24T05:56:05.395Z,98431.69
2018-08-24T05:58:37.636Z,98430.36
2018-08-24T06:01:10.024Z,98426.69
2018-08-24T06:03:42.340Z,98423.87
2018-08-24T06:06:14.351Z,98423.04
2018-08-24T06:08:46.528Z,98418.03
2018-08-24T06:11:18.602Z,98420.70
2018-08-24T06:13:50.451Z,98419.25
2018-08-24T06:16:22.302Z,98417.71
2018-08-24T06:18:54.234Z,98418.03
2018-08-24T06:21:26.427Z,98411.55
2018-08-24T06:23:58.314Z,98412.05
2018-08-24T06:26:30.321Z,98407.76
2018-08-24T06:29:02.522Z,98409.21
2018-08-24T06:31:34.480Z,98401.72
2018-08-24T06:34:07.391Z,98395.05
2018-08-24T06:36:39.707Z,98396.06
2018-08-24T06:39:13.651Z,98391.77
2018-08-24T06:41:46.541Z,98382.73
2018-08-24T06:44:18.527Z,98382.23
2018-08-24T06:46:50.416Z,98379.45
2018-08-24T06:49:22.317Z,98375.45
2018-08-24T06:51:54.985Z,98375.13
2018-08-24T06:54:26.609Z,98374.12
2018-08-24T06:56:58.728Z,98369.23
2018-08-24T06:59:30.662Z,98358.57
2018-08-24T07:02:04.586Z,98358.45
2018-08-24T07:04:36.683Z,98356.91
2018-08-24T07:07:11.100Z,98350.75
2018-08-24T07:09:43.206Z,98343.09
2018-08-24T07:12:16.354Z,98346.64
2018-08-24T07:14:49.526Z,98341.30
2018-08-24T07:17:28.219Z,98338.81
2018-08-24T07:20:00.006Z,98328.16
2018-08-24T07:22:31.919Z,98326.00
2018-08-24T07:25:03.889Z,98315.16
2018-08-24T07:27:35.662Z,98321.50
2018-08-24T07:30:07.402Z,98316.16
2018-08-24T07:32:39.252Z,98315.16
2018-08-24T07:35:11.517Z,98308.17
2018-08-24T07:37:44.212Z,98305.50
2018-08-24T07:40:16.198Z,98298.52
2018-08-24T07:42:48.702Z,98289.52
2018-08-24T07:45:21.228Z,98285.70
2018-08-24T07:47:53.320Z,98287.35
2018-08-24T07:50:25.055Z,98281.20
2018-08-24T07:52:57.151Z,98281.20
2018-08-24T07:55:30.054Z,98275.87
2018-08-24T07:58:02.333Z,98273.53
2018-08-24T08:00:33.802Z,98268.70
2018-08-24T08:03:06.255Z,98262.86
2018-08-24T08:05:38.395Z,98270.68
2018-08-24T08:08:10.306Z,98260.20
2018-08-24T08:10:42.841Z,98261.71
2018-08-24T08:13:14.846Z,98249.87
2018-08-24T08:15:46.944Z,98251.20
2018-08-24T08:18:18.889Z,98239.20
2018-08-24T08:20:50.790Z,98235.71
2018-08-24T08:23:23.041Z,98236.55
2018-08-24T08:25:54.893Z,98233.55
2018-08-24T08:28:26.753Z,98226.56
2018-08-24T08:30:58.423Z,98226.24
2018-08-24T08:33:30.261Z,98217.23
2018-08-24T08:36:01.858Z,98216.55
2018-08-24T08:38:33.713Z,98211.73
2018-08-24T08:41:05.597Z,98201.25
2018-08-24T08:43:37.247Z,98196.92
2018-08-24T08:46:09.113Z,98200.75
2018-08-24T08:48:40.858Z,98197.58
2018-08-24T08:51:12.844Z,98186.92
2018-08-24T08:53:44.684Z,98183.92
2018-08-24T08:56:16.339Z,98181.59
2018-08-24T08:58:48.385Z,98178.92
2018-08-24T09:01:20.788Z,98180.08
2018-08-24T09:03:52.624Z,98177.27
2018-08-24T09:06:24.720Z,98174.59
2018-08-24T09:08:56.715Z,98175.25
2018-08-24T09:11:28.644Z,98171.43
2018-08-24T09:14:00.294Z,98173.77
2018-08-24T09:16:31.888Z,98172.77
2018-08-24T09:19:08.314Z,98172.58
2018-08-24T09:21:45.092Z,98172.58
2018-08-24T09:24:21.679Z,98168.27
2018-08-24T09:27:57.817Z,98167.11
2018-08-24T09:30:33.712Z,98157.60
2018-08-24T09:33:05.315Z,98164.59
2018-08-24T09:35:37.246Z,98160.77
2018-08-24T09:38:09.074Z,98158.61
2018-08-24T09:40:45.407Z,98157.09
2018-08-24T09:43:22.394Z,98156.59
2018-08-24T09:45:57.015Z,98155.77
2018-08-24T09:48:31.771Z,98159.77
2018-08-24T09:51:08.392Z,98157.09
2018-08-24T09:53:44.813Z,98156.27
2018-08-24T09:56:17.245Z,98151.27
2018-08-24T09:58:49.080Z,98150.94
2018-08-24T10:01:26.351Z,98150.76
2018-08-24T10:04:02.762Z,98147.95
2018-08-24T10:06:39.923Z,98147.44
2018-08-24T10:09:15.167Z,98146.22
2018-08-24T10:11:46.821Z,98146.63
2018-08-24T10:14:18.721Z,98147.59
2018-08-24T10:16:50.466Z,98150.94
2018-08-24T10:19:22.330Z,98139.13
2018-08-24T10:21:54.135Z,98143.95
2018-08-24T10:24:25.810Z,98143.95
2018-08-24T10:26:57.842Z,98143.45
2018-08-24T10:29:29.388Z,98144.78
2018-08-24T10:32:02.062Z,98143.45
2018-08-24T10:34:34.124Z,98145.94
2018-08-24T10:37:06.608Z,98152.27
2018-08-24T10:39:38.654Z,98145.75
2018-08-24T10:42:10.420Z,98145.75
2018-08-24T10:44:42.737Z,98144.78
2018-08-24T10:47:15.351Z,98142.94
2018-08-24T10:49:47.296Z,98144.60
2018-08-24T10:52:18.925Z,98142.94
2018-08-24T10:54:50.813Z,98132.28
2018-08-24T10:57:22.606Z,98125.63
2018-08-24T10:59:54.323Z,98123.97
2018-08-24T11:02:26.601Z,98121.73
2018-08-24T11:04:58.467Z,98125.48
2018-08-24T11:07:30.375Z,98120.80
2018-08-24T11:10:02.630Z,98121.62
2018-08-24T11:12:34.550Z,98120.62
2018-08-24T11:15:06.532Z,98107.98
2018-08-24T11:18:10.806Z,98096.67
2018-08-24T11:20:43.072Z,98097.32
2018-08-24T11:23:14.770Z,98099.98
2018-08-24T11:25:46.609Z,98096.31
2018-08-24T11:28:18.714Z,98094.66
2018-08-24T11:30:50.439Z,98093.32
2018-08-24T11:33:22.128Z,98092.81
2018-08-24T11:35:53.988Z,98094.15
2018-08-24T11:38:26.156Z,98097.32
2018-08-24T11:40:58.280Z,98090.16
2018-08-24T11:43:30.007Z,98094.33
2018-08-24T11:46:01.486Z,98088.50
2018-08-24T11:48:33.323Z,98093.83
2018-08-24T11:51:05.031Z,98098.15
2018-08-24T11:53:36.936Z,98101.31
2018-08-24T11:56:08.458Z,98101.71
2018-08-24T11:58:40.576Z,98103.98
2018-08-24T12:01:12.397Z,98104.98
2018-08-24T12:03:44.680Z,98107.98
2018-08-24T12:06:16.639Z,98117.13
2018-08-24T12:08:50.468Z,98114.64
2018-08-24T12:11:22.248Z,98114.97
2018-08-24T12:13:54.391Z,98112.98
2018-08-24T12:16:26.329Z,98115.33
2018-08-24T12:18:58.207Z,98126.31
2018-08-24T12:21:30.040Z,98128.97
2018-08-24T12:24:02.542Z,98130.30
2018-08-24T12:26:33.966Z,98127.64
2018-08-24T12:29:06.305Z,98129.62
2018-08-24T12:31:38.186Z,98120.66
2018-08-24T12:34:10.345Z,98130.62
2018-08-24T12:36:42.183Z,98125.48
2018-08-24T12:39:14.774Z,98127.64
2018-08-24T12:41:46.467Z,98126.31
2018-08-24T12:44:19.046Z,98127.85
2018-08-24T12:46:54.676Z,98124.55
2018-08-24T12:49:26.762Z,98127.53
2018-08-24T12:51:58.643Z,98129.19
2018-08-24T12:54:30.473Z,98123.53
2018-08-24T12:57:02.617Z,98122.70
2018-08-24T12:59:35.239Z,98126.37
2018-08-24T13:02:07.809Z,98123.53
2018-08-24T13:04:39.745Z,98124.04
2018-08-24T13:07:11.199Z,98128.03
2018-08-24T13:09:44.310Z,98121.70
2018-08-24T13:12:16.060Z,98132.03
2018-08-24T13:14:47.706Z,98138.11
2018-08-24T13:17:19.480Z,98129.47
2018-08-24T13:19:51.186Z,98134.37
2018-08-24T13:22:22.801Z,98137.08
2018-08-24T13:24:55.245Z,98140.06
2018-08-24T13:27:27.280Z,98141.72
2018-08-24T13:29:59.229Z,98145.57
2018-08-24T13:32:31.155Z,98149.71
2018-08-24T13:35:02.727Z,98151.73
2018-08-24T13:37:34.860Z,98150.40
2018-08-24T13:40:06.794Z,98160.88
2018-08-24T13:42:39.197Z,98158.21
2018-08-24T13:45:11.432Z,98156.37
2018-08-24T13:47:43.309Z,98159.36
2018-08-24T13:50:15.184Z,98165.38
2018-08-24T13:52:47.267Z,98162.39
2018-08-24T13:55:19.204Z,98164.87
2018-08-24T13:57:51.047Z,98168.76
2018-08-24T14:00:24.051Z,98175.34
2018-08-24T14:02:56.011Z,98169.52
2018-08-24T14:05:28.839Z,98177.01
2018-08-24T14:08:00.306Z,98176.69
2018-08-24T14:10:33.736Z,98177.01
2018-08-24T14:13:05.577Z,98184.35
2018-08-24T14:15:36.982Z,98177.69
2018-08-24T14:18:09.237Z,98187.02
2018-08-24T14:20:40.785Z,98187.34
2018-08-24T14:23:12.289Z,98183.34
2018-08-24T14:25:44.559Z,98183.99
2018-08-24T14:28:16.642Z,98183.84
2018-08-24T14:30:48.438Z,98182.02
2018-08-24T14:33:20.324Z,98187.66
2018-08-24T14:35:52.433Z,98182.84
2018-08-24T14:38:24.294Z,98183.67
2018-08-24T14:40:56.249Z,98186.66
2018-08-24T14:43:28.265Z,98189.83
2018-08-24T14:46:00.439Z,98193.00
2018-08-24T14:48:31.854Z,98194.98
2018-08-24T14:51:03.803Z,98195.66
2018-08-24T14:53:35.279Z,98197.31
2018-08-24T14:56:07.664Z,98193.00
2018-08-24T14:58:39.956Z,98194.33
2018-08-24T15:01:11.964Z,98198.65
2018-08-24T15:03:43.345Z,98203.33
2018-08-24T15:06:15.276Z,98201.31
2018-08-24T15:08:46.968Z,98207.98
2018-08-24T15:11:20.176Z,98203.66
2018-08-24T15:13:51.594Z,98199.98
2018-08-24T15:16:23.641Z,98193.64
2018-08-24T15:18:55.702Z,98202.47
2018-08-24T15:21:28.726Z,98200.59
2018-08-24T15:24:01.633Z,98199.27
2018-08-24T15:26:33.681Z,98204.59
2018-08-24T15:29:05.354Z,98203.59
2018-08-24T15:31:38.143Z,98201.93
2018-08-24T15:34:10.602Z,98199.27
2018-08-24T15:36:42.477Z,98200.30
2018-08-24T15:39:14.682Z,98205.93
2018-08-24T15:41:46.790Z,98203.80
2018-08-24T15:44:18.420Z,98212.30
2018-08-24T15:46:50.474Z,98208.30
2018-08-24T15:49:22.617Z,98212.30
2018-08-24T15:51:54.814Z,98216.30
2018-08-24T15:54:28.583Z,98217.13
2018-08-24T15:57:00.611Z,98220.29
2018-08-24T15:59:32.311Z,98220.08
2018-08-24T16:02:04.563Z,98219.25
2018-08-24T16:04:36.327Z,98219.25
2018-08-24T16:07:08.985Z,98222.12
2018-08-24T16:09:40.936Z,98217.92
2018-08-24T16:12:13.173Z,98224.91
2018-08-24T16:14:45.020Z,98221.41
2018-08-24T16:17:17.231Z,98222.75
2018-08-24T16:19:49.052Z,98222.45
2018-08-24T16:22:21.038Z,98222.95
2018-08-24T16:24:52.867Z,98219.97
2018-08-24T16:27:25.797Z,98223.64
2018-08-24T16:29:58.489Z,98223.25
2018-08-24T16:32:30.167Z,98222.24
2018-08-24T16:35:01.899Z,98225.63
2018-08-24T16:37:33.696Z,98222.95
2018-08-24T16:40:05.752Z,98224.29
2018-08-24T16:42:37.697Z,98219.79
2018-08-24T16:45:09.904Z,98229.91
2018-08-24T16:47:41.819Z,98227.25
2018-08-24T16:50:14.648Z,98225.63
2018-08-24T16:52:46.309Z,98224.58
2018-08-24T16:55:17.947Z,98225.66
2018-08-24T16:57:50.688Z,98221.33
2018-08-24T17:00:22.444Z,98224.47
2018-08-24T17:02:54.724Z,98224.97
2018-08-24T17:05:26.884Z,98225.63
2018-08-24T17:07:58.553Z,98213.02
2018-08-24T17:10:30.310Z,98218.66
2018-08-24T17:13:03.225Z,98209.73
2018-08-24T17:15:35.080Z,98211.68
2018-08-24T17:18:06.996Z,98209.41
2018-08-24T17:20:39.846Z,98205.67
2018-08-24T17:23:12.507Z,98207.18
2018-08-24T17:25:45.385Z,98208.19
2018-08-24T17:28:18.647Z,98205.52
2018-08-24T17:30:50.414Z,98208.01
2018-08-24T17:33:22.526Z,98205.02
2018-08-24T17:35:54.415Z,98208.08
2018-08-24T17:38:26.095Z,98206.35
2018-08-24T17:40:58.133Z,98204.02
2018-08-24T17:43:29.944Z,98200.19
2018-08-24T17:46:02.333Z,98197.35
2018-08-24T17:48:34.502Z,98198.69
2018-08-24T17:51:06.549Z,98194.06
2018-08-24T17:53:40.864Z,98199.40
2018-08-24T17:56:12.957Z,98197.23
2018-08-24T17:58:45.080Z,98197.74
2018-08-24T18:01:17.126Z,98184.92
2018-08-24T18:03:49.088Z,98188.41
2018-08-24T18:06:21.730Z,98178.08
2018-08-24T18:08:53.805Z,98182.08
2018-08-24T18:11:26.366Z,98181.25
2018-08-24T18:14:00.004Z,98171.09
2018-08-24T18:16:32.274Z,98167.10
2018-08-24T18:19:04.528Z,98170.27
2018-08-24T18:21:36.348Z,98162.95
2018-08-24T18:24:08.290Z,98164.76
2018-08-24T18:26:40.594Z,98174.20
2018-08-24T18:29:12.449Z,98169.38
2018-08-24T18:31:45.110Z,98163.94
2018-08-24T18:34:18.171Z,98160.94
2018-08-24T18:36:52.057Z,98161.77
2018-08-24T18:39:24.450Z,98160.44
2018-08-24T18:41:56.497Z,98157.27
2018-08-24T18:44:28.440Z,98159.43
2018-08-24T18:47:02.328Z,98153.78
2018-08-24T18:49:34.756Z,98147.80
2018-08-24T18:52:06.508Z,98144.81
2018-08-24T18:54:38.770Z,98138.16
2018-08-24T18:57:10.510Z,98139.81
2018-08-24T18:59:42.835Z,98132.50
2018-08-24T19:02:15.357Z,98138.16
2018-08-24T19:04:47.163Z,98137.97
2018-08-24T19:07:19.626Z,98130.66
2018-08-24T19:09:52.689Z,98128.50
2018-08-24T19:12:27.593Z,98126.16
2018-08-24T19:15:00.848Z,98122.67
2018-08-24T19:17:38.020Z,98112.52
2018-08-24T19:20:15.004Z,98112.52
2018-08-24T19:22:52.637Z,98118.86
2018-08-24T19:25:25.192Z,98119.89
2018-08-24T19:28:03.602Z,98116.52
2018-08-24T19:30:36.234Z,98108.70
2018-08-24T19:33:08.304Z,98103.37
2018-08-24T19:35:41.681Z,98104.92
2018-08-24T19:38:13.944Z,98104.59
2018-08-24T19:40:50.940Z,98105.92
2018-08-24T19:43:23.910Z,98110.94
2018-08-24T19:45:56.420Z,98109.92
2018-08-24T19:48:37.019Z,98107.77
2018-08-24T19:51:10.403Z,98109.42
2018-08-24T19:53:43.402Z,98105.42
2018-08-24T19:56:15.346Z,98104.27
2018-08-24T19:58:52.130Z,98106.61
2018-08-24T20:01:24.372Z,98100.59
2018-08-24T20:03:57.911Z,98095.27
2018-08-24T20:06:34.633Z,98102.26
2018-08-24T20:09:16.252Z,98093.44
2018-08-24T20:11:51.570Z,98085.30
2018-08-24T20:14:28.652Z,98084.30
2018-08-24T20:17:07.762Z,98081.63
2018-08-24T20:19:39.628Z,98082.96
2018-08-24T20:22:13.722Z,98084.66
2018-08-24T20:24:46.513Z,98081.98
2018-08-24T20:27:19.916Z,98078.64
2018-08-24T20:29:52.906Z,98072.16
2018-08-24T20:32:26.793Z,98071.23
2018-08-24T20:34:59.324Z,98069.06
2018-08-24T20:37:32.600Z,98068.38
2018-08-24T20:40:05.639Z,98058.73
2018-08-24T20:42:38.484Z,98049.27
2018-08-24T20:45:11.433Z,98046.10
2018-08-24T20:47:43.755Z,98044.45
2018-08-24T20:50:15.868Z,98044.77
2018-08-24T20:52:48.468Z,98045.09
2018-08-24T20:55:20.529Z,98042.11
2018-08-24T20:57:52.999Z,98039.95
2018-08-24T21:00:25.236Z,98039.12
2018-08-24T21:02:59.090Z,98039.80
2018-08-24T21:05:31.234Z,98032.28
2018-08-24T21:08:04.924Z,98031.45
2018-08-24T21:10:36.847Z,98027.45
2018-08-24T21:13:10.297Z,98029.80
2018-08-24T21:15:42.799Z,98031.45
2018-08-24T21:18:18.424Z,98031.62
2018-08-24T21:20:52.052Z,98025.16
2018-08-24T21:23:26.485Z,98024.87
2018-08-24T21:25:58.498Z,98017.16
2018-08-24T21:28:31.664Z,98006.22
2018-08-24T21:31:05.839Z,98006.51
2018-08-24T21:33:38.065Z,98006.00
2018-08-24T21:36:10.615Z,98004.89
2018-08-24T21:38:44.030Z,98008.06
2018-08-24T21:41:16.657Z,98014.72
2018-08-24T21:43:49.661Z,98021.88
2018-08-24T21:46:22.759Z,98021.38
2018-08-24T21:48:55.417Z,98018.89
2018-08-24T21:51:28.068Z,98013.89
2018-08-24T21:54:00.894Z,98019.83
2018-08-24T21:56:34.021Z,98018.39
2018-08-24T21:59:07.163Z,98019.90
2018-08-24T22:01:39.955Z,98008.09
2018-08-24T22:04:15.334Z,98005.75
2018-08-24T22:06:48.494Z,98007.27
2018-08-24T22:09:22.079Z,98011.91
2018-08-24T22:11:54.595Z,98013.92
2018-08-24T22:14:27.658Z,98023.06
2018-08-24T22:17:00.468Z,98023.57
2018-08-24T22:19:34.062Z,98020.27
2018-08-24T22:22:08.362Z,98025.80
2018-08-24T22:24:41.560Z,98026.92
2018-08-24T22:27:13.613Z,98033.58
2018-08-24T22:29:46.327Z,98028.14
2018-08-24T22:32:18.711Z,98030.30
2018-08-24T22:34:52.464Z,98032.97
2018-08-24T22:37:24.929Z,98031.31
2018-08-24T22:39:58.024Z,98028.65
2018-08-24T22:42:30.216Z,98030.66
2018-08-24T22:45:02.395Z,98033.65
2018-08-24T22:47:35.295Z,98043.80
2018-08-24T22:50:08.639Z,98035.48
2018-08-24T22:52:41.384Z,98041.31
2018-08-24T22:55:14.094Z,98036.31
2018-08-24T22:57:45.803Z,98039.66
2018-08-24T23:00:18.623Z,98042.64
2018-08-24T23:02:51.088Z,98046.64
2018-08-24T23:05:24.497Z,98043.98
2018-08-24T23:07:57.253Z,98052.15
2018-08-24T23:10:29.862Z,98054.62
2018-08-24T23:13:03.348Z,98056.65
2018-08-24T23:15:36.713Z,98061.61
2018-08-24T23:18:12.366Z,98065.28
2018-08-24T23:20:47.722Z,98070.94
2018-08-24T23:23:20.797Z,98077.30
2018-08-24T23:25:55.961Z,98074.13
2018-08-24T23:28:30.971Z,98080.47
2018-08-24T23:31:04.848Z,98088.60
2018-08-24T23:33:38.269Z,98094.47
2018-08-24T23:36:11.761Z,98099.28
2018-08-24T23:38:45.352Z,98104.61
2018-08-24T23:41:18.359Z,98098.13
2018-08-24T23:43:50.638Z,98098.45
2018-08-24T23:46:23.435Z,98102.13
2018-08-24T23:48:55.667Z,98097.95
2018-08-24T23:51:28.199Z,98101.30
2018-08-24T23:54:01.286Z,98105.30
2018-08-24T23:56:33.670Z,98107.45
2018-08-24T23:59:05.961Z,98117.78
